Terminal Aerodrome Forecast
Issued by NWS Cleveland, OH

Home | Current Version | Previous Version | Graphics & Text | Print | Product List | Glossary On
Versions: 1 2 3 4 5 6 7 8 9 10 11 12 13 14 15 16 17 18 19 20 21
000
FTUS41 KCLE 252324
TAFMFD
TAF
KMFD 252324Z 2600/2624 09008KT P6SM BKN050
     FM260700 13008KT 4SM BR OVC025
     FM261600 16014KT P6SM VCSH BKN035 OVC080
     FM262100 17014G22KT 2SM -TSRA OVC015CB=

USA.gov is the U.S. government's official web portal to all federal, state and local government web resources and services.